Terminal Aerodrome Forecast
Issued by NWS Milwaukee/Sullivan, WI

Home | Current Version | Previous Version | Text Only | Print | Product List | Glossary On
Versions: 1 2 3 4 5 6 7 8 9 10 11 12 13 14 15 16 17 18 19 20 21 22 23 24 25 26 27 28 29 30 31 32 33 34 35 36 37 38 39 40 41 42 43 44 45 46 47 48 49 50
000
FTUS43 KMKX 210520
TAFMSN
TAF
KMSN 210520Z 2106/2206 13004KT P6SM SCT060 BKN150
     FM210800 VRB03KT 5SM BR VCSH BKN070
     FM211200 VRB03KT 3SM BR VCTS SCT025 OVC060CB
     FM211500 17006KT P6SM SCT035 BKN080
     FM211900 16008KT P6SM TSRA BKN035CB
     FM220000 16006KT P6SM -SHRA BKN040 BKN080
     FM220300 13005KT P6SM SCT008 BKN060=

USA.gov is the U.S. government's official web portal to all federal, state and local government web resources and services.